sensor_id;sensor_type;location;lat;lon;timestamp;temperature;humidity
25108;DHT22;13090;53.422;7.670;2022-10-26T00:04:10;12.70;86.50
25108;DHT22;13090;53.422;7.670;2022-10-26T00:09:14;12.70;86.70
25108;DHT22;13090;53.422;7.670;2022-10-26T00:14:16;12.60;86.70
25108;DHT22;13090;53.422;7.670;2022-10-26T00:19:19;12.60;86.60
25108;DHT22;13090;53.422;7.670;2022-10-26T00:24:23;12.50;86.40
25108;DHT22;13090;53.422;7.670;2022-10-26T00:29:25;12.50;86.50
25108;DHT22;13090;53.422;7.670;2022-10-26T00:34:27;12.50;86.50
25108;DHT22;13090;53.422;7.670;2022-10-26T00:39:31;12.50;86.50
25108;DHT22;13090;53.422;7.670;2022-10-26T00:44:55;12.40;86.40
25108;DHT22;13090;53.422;7.670;2022-10-26T00:50:01;12.40;87.40
25108;DHT22;13090;53.422;7.670;2022-10-26T00:55:07;12.30;86.60
25108;DHT22;13090;53.422;7.670;2022-10-26T01:00:10;12.30;86.90
25108;DHT22;13090;53.422;7.670;2022-10-26T01:05:13;12.20;87.00
25108;DHT22;13090;53.422;7.670;2022-10-26T01:10:18;12.20;87.30
25108;DHT22;13090;53.422;7.670;2022-10-26T01:15:21;12.20;87.40
25108;DHT22;13090;53.422;7.670;2022-10-26T01:21:14;12.20;87.30
25108;DHT22;13090;53.422;7.670;2022-10-26T01:26:49;12.20;89.00
25108;DHT22;13090;53.422;7.670;2022-10-26T01:31:58;12.20;88.40
25108;DHT22;13090;53.422;7.670;2022-10-26T01:37:09;12.20;87.70
25108;DHT22;13090;53.422;7.670;2022-10-26T01:42:16;12.10;87.70
25108;DHT22;13090;53.422;7.670;2022-10-26T01:47:23;12.00;87.70
25108;DHT22;13090;53.422;7.670;2022-10-26T01:52:26;12.00;87.90
25108;DHT22;13090;53.422;7.670;2022-10-26T01:57:30;11.90;87.80
25108;DHT22;13090;53.422;7.670;2022-10-26T02:02:55;11.80;88.10
25108;DHT22;13090;53.422;7.670;2022-10-26T02:08:04;11.70;89.00
25108;DHT22;13090;53.422;7.670;2022-10-26T02:13:15;11.70;89.70
25108;DHT22;13090;53.422;7.670;2022-10-26T02:18:27;11.50;88.10
25108;DHT22;13090;53.422;7.670;2022-10-26T02:23:34;11.50;88.10
25108;DHT22;13090;53.422;7.670;2022-10-26T02:28:40;11.40;88.20
25108;DHT22;13090;53.422;7.670;2022-10-26T02:33:47;11.40;88.20
25108;DHT22;13090;53.422;7.670;2022-10-26T02:38:55;11.40;88.50
25108;DHT22;13090;53.422;7.670;2022-10-26T02:44:03;11.50;88.30
25108;DHT22;13090;53.422;7.670;2022-10-26T02:49:08;11.40;88.90
25108;DHT22;13090;53.422;7.670;2022-10-26T02:54:16;11.40;88.90
25108;DHT22;13090;53.422;7.670;2022-10-26T02:59:22;11.40;89.00
25108;DHT22;13090;53.422;7.670;2022-10-26T03:04:32;11.50;88.80
25108;DHT22;13090;53.422;7.670;2022-10-26T03:09:34;11.50;88.90
25108;DHT22;13090;53.422;7.670;2022-10-26T03:14:37;11.50;88.80
25108;DHT22;13090;53.422;7.670;2022-10-26T03:19:41;11.40;88.90
25108;DHT22;13090;53.422;7.670;2022-10-26T03:24:43;11.50;89.10
25108;DHT22;13090;53.422;7.670;2022-10-26T03:29:46;11.40;89.00
25108;DHT22;13090;53.422;7.670;2022-10-26T03:34:50;11.40;88.90
25108;DHT22;13090;53.422;7.670;2022-10-26T03:39:52;11.40;88.90
25108;DHT22;13090;53.422;7.670;2022-10-26T03:44:55;11.40;88.80
25108;DHT22;13090;53.422;7.670;2022-10-26T03:49:59;11.40;89.00
25108;DHT22;13090;53.422;7.670;2022-10-26T03:55:03;11.40;89.40
25108;DHT22;13090;53.422;7.670;2022-10-26T04:00:07;11.40;89.50
25108;DHT22;13090;53.422;7.670;2022-10-26T04:05:11;11.40;89.80
25108;DHT22;13090;53.422;7.670;2022-10-26T04:10:14;11.30;89.60
25108;DHT22;13090;53.422;7.670;2022-10-26T04:15:17;11.30;89.80
25108;DHT22;13090;53.422;7.670;2022-10-26T04:20:22;11.30;90.00
25108;DHT22;13090;53.422;7.670;2022-10-26T04:25:25;11.20;90.00
25108;DHT22;13090;53.422;7.670;2022-10-26T04:30:34;11.20;90.00
25108;DHT22;13090;53.422;7.670;2022-10-26T04:35:38;11.20;90.00
25108;DHT22;13090;53.422;7.670;2022-10-26T04:40:41;11.20;90.10
25108;DHT22;13090;53.422;7.670;2022-10-26T04:45:43;11.20;90.00
25108;DHT22;13090;53.422;7.670;2022-10-26T04:50:47;11.20;90.00
25108;DHT22;13090;53.422;7.670;2022-10-26T04:55:55;11.20;90.20
25108;DHT22;13090;53.422;7.670;2022-10-26T05:01:00;11.20;90.20
25108;DHT22;13090;53.422;7.670;2022-10-26T05:06:05;11.20;90.20
25108;DHT22;13090;53.422;7.670;2022-10-26T05:11:08;11.20;90.40
25108;DHT22;13090;53.422;7.670;2022-10-26T05:16:11;11.10;90.60
25108;DHT22;13090;53.422;7.670;2022-10-26T05:21:16;11.10;90.50
25108;DHT22;13090;53.422;7.670;2022-10-26T05:26:19;11.10;90.50
25108;DHT22;13090;53.422;7.670;2022-10-26T05:31:22;11.10;90.40
25108;DHT22;13090;53.422;7.670;2022-10-26T05:36:26;11.10;90.30
25108;DHT22;13090;53.422;7.670;2022-10-26T05:41:29;11.00;90.50
25108;DHT22;13090;53.422;7.670;2022-10-26T05:46:32;11.00;90.40
25108;DHT22;13090;53.422;7.670;2022-10-26T05:51:36;11.00;90.40
25108;DHT22;13090;53.422;7.670;2022-10-26T05:56:40;11.00;90.40
25108;DHT22;13090;53.422;7.670;2022-10-26T06:01:51;11.00;90.40
25108;DHT22;13090;53.422;7.670;2022-10-26T06:06:58;11.00;90.50
25108;DHT22;13090;53.422;7.670;2022-10-26T06:12:02;11.10;90.30
25108;DHT22;13090;53.422;7.670;2022-10-26T06:17:18;11.10;90.30
25108;DHT22;13090;53.422;7.670;2022-10-26T06:22:37;11.20;90.40
25108;DHT22;13090;53.422;7.670;2022-10-26T06:27:45;11.20;90.40
25108;DHT22;13090;53.422;7.670;2022-10-26T06:32:53;11.20;90.50
25108;DHT22;13090;53.422;7.670;2022-10-26T06:38:16;11.30;90.30
25108;DHT22;13090;53.422;7.670;2022-10-26T06:43:24;11.40;90.60
25108;DHT22;13090;53.422;7.670;2022-10-26T06:48:28;11.70;90.90
25108;DHT22;13090;53.422;7.670;2022-10-26T06:53:39;12.20;91.00
25108;DHT22;13090;53.422;7.670;2022-10-26T06:58:44;12.80;90.90
25108;DHT22;13090;53.422;7.670;2022-10-26T07:03:47;13.40;90.40
25108;DHT22;13090;53.422;7.670;2022-10-26T07:08:51;13.70;88.80
25108;DHT22;13090;53.422;7.670;2022-10-26T07:13:54;13.60;87.60
25108;DHT22;13090;53.422;7.670;2022-10-26T07:18:56;13.40;87.50
25108;DHT22;13090;53.422;7.670;2022-10-26T07:24:00;13.20;87.80
25108;DHT22;13090;53.422;7.670;2022-10-26T07:29:03;13.10;88.40
25108;DHT22;13090;53.422;7.670;2022-10-26T07:34:05;13.00;89.60
25108;DHT22;13090;53.422;7.670;2022-10-26T07:39:10;12.90;90.00
25108;DHT22;13090;53.422;7.670;2022-10-26T07:44:12;12.90;89.80
25108;DHT22;13090;53.422;7.670;2022-10-26T07:49:15;13.00;90.00
25108;DHT22;13090;53.422;7.670;2022-10-26T07:54:22;13.20;90.10
25108;DHT22;13090;53.422;7.670;2022-10-26T07:59:25;13.40;89.90
25108;DHT22;13090;53.422;7.670;2022-10-26T08:04:28;13.60;90.00
25108;DHT22;13090;53.422;7.670;2022-10-26T08:09:32;14.10;90.50
25108;DHT22;13090;53.422;7.670;2022-10-26T08:14:34;14.90;90.20
25108;DHT22;13090;53.422;7.670;2022-10-26T08:19:37;15.70;88.20
25108;DHT22;13090;53.422;7.670;2022-10-26T08:24:41;16.50;87.00
25108;DHT22;13090;53.422;7.670;2022-10-26T08:29:44;17.30;87.00
25108;DHT22;13090;53.422;7.670;2022-10-26T08:34:47;18.00;86.10
25108;DHT22;13090;53.422;7.670;2022-10-26T08:39:51;18.70;84.40
25108;DHT22;13090;53.422;7.670;2022-10-26T08:45:00;18.90;81.30
25108;DHT22;13090;53.422;7.670;2022-10-26T08:50:10;18.70;79.30
25108;DHT22;13090;53.422;7.670;2022-10-26T08:55:19;18.30;78.70
25108;DHT22;13090;53.422;7.670;2022-10-26T09:00:24;18.00;78.70
25108;DHT22;13090;53.422;7.670;2022-10-26T09:05:34;18.00;80.50
25108;DHT22;13090;53.422;7.670;2022-10-26T09:10:43;18.30;80.10
25108;DHT22;13090;53.422;7.670;2022-10-26T09:15:59;18.80;79.70
25108;DHT22;13090;53.422;7.670;2022-10-26T09:21:12;19.20;78.70
25108;DHT22;13090;53.422;7.670;2022-10-26T09:26:30;19.50;77.20
25108;DHT22;13090;53.422;7.670;2022-10-26T09:31:44;19.70;77.40
25108;DHT22;13090;53.422;7.670;2022-10-26T09:36:53;19.90;77.40
25108;DHT22;13090;53.422;7.670;2022-10-26T09:41:59;20.20;77.00
25108;DHT22;13090;53.422;7.670;2022-10-26T09:47:08;20.40;76.10
25108;DHT22;13090;53.422;7.670;2022-10-26T09:52:14;20.60;75.80
25108;DHT22;13090;53.422;7.670;2022-10-26T09:57:20;20.90;76.10
25108;DHT22;13090;53.422;7.670;2022-10-26T10:02:36;21.20;75.20
25108;DHT22;13090;53.422;7.670;2022-10-26T10:07:39;21.40;73.40
25108;DHT22;13090;53.422;7.670;2022-10-26T10:12:44;21.70;71.90
25108;DHT22;13090;53.422;7.670;2022-10-26T10:17:49;21.80;73.80
25108;DHT22;13090;53.422;7.670;2022-10-26T10:22:56;22.00;72.50
25108;DHT22;13090;53.422;7.670;2022-10-26T10:28:01;22.30;73.10
25108;DHT22;13090;53.422;7.670;2022-10-26T10:33:07;22.60;71.70
25108;DHT22;13090;53.422;7.670;2022-10-26T10:38:15;23.00;71.40
25108;DHT22;13090;53.422;7.670;2022-10-26T10:43:20;23.30;70.20
25108;DHT22;13090;53.422;7.670;2022-10-26T11:00:55;23.60;70.20
25108;DHT22;13090;53.422;7.670;2022-10-26T11:06:12;23.80;69.00
25108;DHT22;13090;53.422;7.670;2022-10-26T11:24:51;24.40;64.40
25108;DHT22;13090;53.422;7.670;2022-10-26T11:30:02;24.70;65.10
25108;DHT22;13090;53.422;7.670;2022-10-26T11:35:12;24.70;64.10
25108;DHT22;13090;53.422;7.670;2022-10-26T11:40:25;24.80;62.30
25108;DHT22;13090;53.422;7.670;2022-10-26T11:45:44;24.80;63.00
25108;DHT22;13090;53.422;7.670;2022-10-26T11:50:50;24.90;62.50
25108;DHT22;13090;53.422;7.670;2022-10-26T11:55:57;24.80;62.50
25108;DHT22;13090;53.422;7.670;2022-10-26T12:01:03;24.70;61.70
25108;DHT22;13090;53.422;7.670;2022-10-26T12:06:09;24.50;62.30
25108;DHT22;13090;53.422;7.670;2022-10-26T12:11:27;24.30;62.20
25108;DHT22;13090;53.422;7.670;2022-10-26T12:16:45;24.00;61.90
25108;DHT22;13090;53.422;7.670;2022-10-26T12:21:53;23.90;61.90
25108;DHT22;13090;53.422;7.670;2022-10-26T12:26:58;23.60;63.40
25108;DHT22;13090;53.422;7.670;2022-10-26T12:32:01;23.50;63.30
25108;DHT22;13090;53.422;7.670;2022-10-26T12:37:23;23.40;64.00
25108;DHT22;13090;53.422;7.670;2022-10-26T12:42:31;23.30;64.40
25108;DHT22;13090;53.422;7.670;2022-10-26T12:48:00;23.50;65.00
25108;DHT22;13090;53.422;7.670;2022-10-26T12:53:22;23.70;64.00
25108;DHT22;13090;53.422;7.670;2022-10-26T12:59:12;23.80;64.30
25108;DHT22;13090;53.422;7.670;2022-10-26T13:09:55;24.00;63.70
25108;DHT22;13090;53.422;7.670;2022-10-26T13:15:03;24.00;63.00
25108;DHT22;13090;53.422;7.670;2022-10-26T13:20:16;23.80;63.00
25108;DHT22;13090;53.422;7.670;2022-10-26T13:25:22;23.70;62.80
25108;DHT22;13090;53.422;7.670;2022-10-26T13:30:47;23.60;63.60
25108;DHT22;13090;53.422;7.670;2022-10-26T13:35:58;23.50;63.60
25108;DHT22;13090;53.422;7.670;2022-10-26T13:41:10;23.40;64.00
25108;DHT22;13090;53.422;7.670;2022-10-26T13:46:24;23.40;64.40
25108;DHT22;13090;53.422;7.670;2022-10-26T13:51:39;23.40;64.60
25108;DHT22;13090;53.422;7.670;2022-10-26T13:57:02;23.40;64.20
25108;DHT22;13090;53.422;7.670;2022-10-26T14:02:15;23.30;64.40
25108;DHT22;13090;53.422;7.670;2022-10-26T14:07:22;23.10;64.80
25108;DHT22;13090;53.422;7.670;2022-10-26T14:12:48;23.00;65.10
25108;DHT22;13090;53.422;7.670;2022-10-26T14:18:16;23.00;65.60
25108;DHT22;13090;53.422;7.670;2022-10-26T14:23:27;23.00;65.20
25108;DHT22;13090;53.422;7.670;2022-10-26T14:28:46;22.90;65.20
25108;DHT22;13090;53.422;7.670;2022-10-26T14:33:51;22.80;65.40
25108;DHT22;13090;53.422;7.670;2022-10-26T14:38:58;22.70;65.70
25108;DHT22;13090;53.422;7.670;2022-10-26T14:44:02;22.70;66.00
25108;DHT22;13090;53.422;7.670;2022-10-26T14:49:17;22.60;66.20
25108;DHT22;13090;53.422;7.670;2022-10-26T14:54:22;22.60;66.10
25108;DHT22;13090;53.422;7.670;2022-10-26T14:59:34;22.50;67.30
25108;DHT22;13090;53.422;7.670;2022-10-26T15:05:01;22.40;66.50
25108;DHT22;13090;53.422;7.670;2022-10-26T15:10:46;22.20;66.90
25108;DHT22;13090;53.422;7.670;2022-10-26T15:15:49;22.10;67.40
25108;DHT22;13090;53.422;7.670;2022-10-26T15:21:01;21.90;67.50
25108;DHT22;13090;53.422;7.670;2022-10-26T15:26:04;21.80;68.00
25108;DHT22;13090;53.422;7.670;2022-10-26T15:31:28;21.70;68.30
25108;DHT22;13090;53.422;7.670;2022-10-26T15:42:12;21.50;69.10
25108;DHT22;13090;53.422;7.670;2022-10-26T15:47:17;21.40;69.40
25108;DHT22;13090;53.422;7.670;2022-10-26T15:52:20;21.40;69.60
25108;DHT22;13090;53.422;7.670;2022-10-26T15:57:25;21.30;69.80
25108;DHT22;13090;53.422;7.670;2022-10-26T16:02:28;21.10;69.90
25108;DHT22;13090;53.422;7.670;2022-10-26T16:07:31;21.00;70.00
25108;DHT22;13090;53.422;7.670;2022-10-26T16:12:38;20.80;70.30
25108;DHT22;13090;53.422;7.670;2022-10-26T16:17:41;20.70;70.60
25108;DHT22;13090;53.422;7.670;2022-10-26T16:22:46;20.50;70.70
25108;DHT22;13090;53.422;7.670;2022-10-26T16:27:51;20.50;71.20
25108;DHT22;13090;53.422;7.670;2022-10-26T16:32:54;20.40;71.60
25108;DHT22;13090;53.422;7.670;2022-10-26T16:37:57;20.30;71.80
25108;DHT22;13090;53.422;7.670;2022-10-26T16:43:02;20.20;72.10
25108;DHT22;13090;53.422;7.670;2022-10-26T16:48:18;20.20;72.60
25108;DHT22;13090;53.422;7.670;2022-10-26T16:53:22;20.10;72.60
25108;DHT22;13090;53.422;7.670;2022-10-26T16:58:26;20.20;72.90
25108;DHT22;13090;53.422;7.670;2022-10-26T17:03:32;20.20;73.10
25108;DHT22;13090;53.422;7.670;2022-10-26T17:08:38;20.20;73.10
25108;DHT22;13090;53.422;7.670;2022-10-26T17:13:44;20.10;73.00
25108;DHT22;13090;53.422;7.670;2022-10-26T17:31:29;19.80;73.80
25108;DHT22;13090;53.422;7.670;2022-10-26T17:37:02;19.60;74.30
25108;DHT22;13090;53.422;7.670;2022-10-26T17:42:40;19.50;75.10
25108;DHT22;13090;53.422;7.670;2022-10-26T17:48:53;19.30;74.80
25108;DHT22;13090;53.422;7.670;2022-10-26T17:54:24;19.20;75.30
25108;DHT22;13090;53.422;7.670;2022-10-26T17:59:52;19.00;74.90
25108;DHT22;13090;53.422;7.670;2022-10-26T18:05:13;18.80;75.60
25108;DHT22;13090;53.422;7.670;2022-10-26T18:10:38;18.70;76.60
25108;DHT22;13090;53.422;7.670;2022-10-26T18:16:49;18.50;77.20
25108;DHT22;13090;53.422;7.670;2022-10-26T18:22:19;18.40;76.80
25108;DHT22;13090;53.422;7.670;2022-10-26T18:27:21;18.20;77.20
25108;DHT22;13090;53.422;7.670;2022-10-26T18:32:24;18.10;77.30
25108;DHT22;13090;53.422;7.670;2022-10-26T18:37:29;18.10;77.70
25108;DHT22;13090;53.422;7.670;2022-10-26T18:42:32;18.00;78.20
25108;DHT22;13090;53.422;7.670;2022-10-26T18:47:37;18.00;78.30
25108;DHT22;13090;53.422;7.670;2022-10-26T18:52:53;17.90;78.50
25108;DHT22;13090;53.422;7.670;2022-10-26T18:58:00;17.90;78.50
25108;DHT22;13090;53.422;7.670;2022-10-26T19:03:03;17.90;78.50
25108;DHT22;13090;53.422;7.670;2022-10-26T19:08:08;17.80;78.60
25108;DHT22;13090;53.422;7.670;2022-10-26T19:13:15;17.90;79.10
25108;DHT22;13090;53.422;7.670;2022-10-26T19:18:18;17.90;79.10
25108;DHT22;13090;53.422;7.670;2022-10-26T19:23:31;17.90;79.30
25108;DHT22;13090;53.422;7.670;2022-10-26T19:28:38;17.90;79.90
25108;DHT22;13090;53.422;7.670;2022-10-26T19:33:41;18.00;79.30
25108;DHT22;13090;53.422;7.670;2022-10-26T19:38:48;18.00;79.40
25108;DHT22;13090;53.422;7.670;2022-10-26T19:43:53;18.00;79.50
25108;DHT22;13090;53.422;7.670;2022-10-26T19:48:59;17.90;79.60
25108;DHT22;13090;53.422;7.670;2022-10-26T19:54:05;18.00;79.60
25108;DHT22;13090;53.422;7.670;2022-10-26T19:59:10;17.90;79.50
25108;DHT22;13090;53.422;7.670;2022-10-26T20:04:23;17.90;79.30
25108;DHT22;13090;53.422;7.670;2022-10-26T20:09:42;17.90;80.00
25108;DHT22;13090;53.422;7.670;2022-10-26T20:14:47;17.90;79.70
25108;DHT22;13090;53.422;7.670;2022-10-26T20:19:53;17.80;79.90
25108;DHT22;13090;53.422;7.670;2022-10-26T20:24:59;17.70;80.00
25108;DHT22;13090;53.422;7.670;2022-10-26T20:30:06;17.70;80.40
25108;DHT22;13090;53.422;7.670;2022-10-26T20:35:13;17.70;80.50
25108;DHT22;13090;53.422;7.670;2022-10-26T20:40:23;17.70;80.40
25108;DHT22;13090;53.422;7.670;2022-10-26T20:45:31;17.60;80.80
25108;DHT22;13090;53.422;7.670;2022-10-26T20:50:35;17.60;80.80
25108;DHT22;13090;53.422;7.670;2022-10-26T20:55:44;17.60;80.70
25108;DHT22;13090;53.422;7.670;2022-10-26T21:00:55;17.50;81.00
25108;DHT22;13090;53.422;7.670;2022-10-26T21:06:00;17.50;81.30
25108;DHT22;13090;53.422;7.670;2022-10-26T21:11:07;17.40;81.10
25108;DHT22;13090;53.422;7.670;2022-10-26T21:16:10;17.30;81.40
25108;DHT22;13090;53.422;7.670;2022-10-26T21:21:13;17.30;81.20
25108;DHT22;13090;53.422;7.670;2022-10-26T21:38:45;17.20;82.20
25108;DHT22;13090;53.422;7.670;2022-10-26T21:43:49;17.20;81.20
25108;DHT22;13090;53.422;7.670;2022-10-26T21:49:11;17.10;81.30
25108;DHT22;13090;53.422;7.670;2022-10-26T21:54:15;17.10;81.40
25108;DHT22;13090;53.422;7.670;2022-10-26T21:59:18;17.10;81.60
25108;DHT22;13090;53.422;7.670;2022-10-26T22:04:20;17.00;81.70
25108;DHT22;13090;53.422;7.670;2022-10-26T22:09:24;17.00;81.70
25108;DHT22;13090;53.422;7.670;2022-10-26T22:14:27;17.00;82.00
25108;DHT22;13090;53.422;7.670;2022-10-26T22:19:29;16.90;81.90
25108;DHT22;13090;53.422;7.670;2022-10-26T22:24:33;16.80;81.90
25108;DHT22;13090;53.422;7.670;2022-10-26T22:29:36;16.80;81.90
25108;DHT22;13090;53.422;7.670;2022-10-26T22:34:39;16.80;81.80
25108;DHT22;13090;53.422;7.670;2022-10-26T22:45:36;16.60;83.40
25108;DHT22;13090;53.422;7.670;2022-10-26T22:50:40;16.60;83.10
25108;DHT22;13090;53.422;7.670;2022-10-26T22:55:46;16.50;82.50
25108;DHT22;13090;53.422;7.670;2022-10-26T23:00:50;16.40;82.50
25108;DHT22;13090;53.422;7.670;2022-10-26T23:05:52;16.40;82.80
25108;DHT22;13090;53.422;7.670;2022-10-26T23:10:57;16.40;83.00
25108;DHT22;13090;53.422;7.670;2022-10-26T23:16:06;16.40;83.30
25108;DHT22;13090;53.422;7.670;2022-10-26T23:21:10;16.30;83.70
25108;DHT22;13090;53.422;7.670;2022-10-26T23:26:15;16.30;83.50
25108;DHT22;13090;53.422;7.670;2022-10-26T23:31:21;16.20;83.60
25108;DHT22;13090;53.422;7.670;2022-10-26T23:36:24;16.20;83.90
25108;DHT22;13090;53.422;7.670;2022-10-26T23:41:26;16.10;83.60
25108;DHT22;13090;53.422;7.670;2022-10-26T23:46:30;16.00;83.80
25108;DHT22;13090;53.422;7.670;2022-10-26T23:51:33;15.90;84.00
25108;DHT22;13090;53.422;7.670;2022-10-26T23:56:35;15.70;83.90
